METAR Data
IDs: Format: Raw Decoded Include TAF

Data at: 2316 UTC 25 Oct 2021

PABE 252253Z 33015KT 10SM CLR M01/M06 A2943 RMK AO2 SLP967 T10111056
PABE 252153Z 33013KT 10SM CLR M02/M06 A2942 RMK AO2 SLP966 T10221056
PABE 252053Z 33011KT 10SM CLR M03/M05 A2942 RMK AO2 SLP966 T10331050 51010
PABE 251953Z 33012KT 10SM CLR M04/M06 A2941 RMK AO2 SLP963 T10391056
PABE 251853Z 33010KT 10SM FEW034 M04/M06 A2941 RMK AO2 SLP960 T10441056
PABE 251753Z 33010KT 10SM OVC034 M03/M04 A2939 RMK AO2 SLP956 T10331044 11033 21067 51002
PABE 251653Z 34007KT 10SM OVC027 M03/M05 A2939 RMK AO2 SLP955 T10331050
PABE 251553Z 34008KT 10SM OVC027 M04/M06 A2940 RMK AO2 SLP957 T10391056
PABE 251453Z 32007KT 10SM OVC031 M06/M07 A2939 RMK AO2 SLP954 T10561067 56002
PABE 251353Z 33006KT 10SM SCT031 M06/M08 A2939 RMK AO2 SLP954 T10611078
PABE 251253Z 32007KT 10SM CLR M06/M08 A2939 RMK AO2 SLP955 T10611078
PABE 251153Z 31006KT 10SM FEW035 M06/M07 A2940 RMK AO2 SLP956 T10611072 11033 21061 58007
PABE 251053Z 32006KT 10SM CLR M06/M08 A2941 RMK AO2 SLP960 T10561078
PABE 250953Z 33007KT 10SM BKN032 M06/M07 A2941 RMK AO2 SLP962 T10561072
PABE 250853Z 32007KT 10SM CLR M05/M07 A2942 RMK AO2 SLP963 T10501067 400111056 56007
PABE 250753Z 31007KT 10SM CLR M04/M06 A2942 RMK AO2 SLP965 T10441061
PABE 250653Z 32004KT 10SM CLR M04/M06 A2943 RMK AO2 SLP967 T10391056
PABE 250643Z 32005KT 10SM CLR M04/M06 A2943 RMK AO2 T10391056
PABE 250636Z 32006KT 2SM BR CLR M04/M06 A2943 RMK AO2 T10391056
PABE 250626Z 32005KT 3/4SM BR CLR M04/M06 A2943 RMK AO2 T10391056 RVRNO
PABE 250553Z 32005KT 10SM CLR M03/M05 A2944 RMK AO2 SLP971 T10331050 10011 21033 56011
PABE 250453Z 34003KT 10SM CLR M03/M04 A2945 RMK AO2 SLP974 T10281044
PABE 250353Z 32004KT 10SM FEW031 M02/M04 A2945 RMK AO2 SLP976 T10171044
PABE 250342Z 33004KT 10SM FEW031 M02/M04 A2946 RMK AO2 T10171044
PABE 250253Z 34004KT 10SM BKN028 M01/M04 A2947 RMK AO2 SLP982 T10111044 56019
PABE 250153Z 34007KT 10SM CLR 00/M04 A2948 RMK AO2 SLP986 T00001044
PABE 250053Z 31007KT 10SM SCT028 BKN041 00/M04 A2950 RMK AO2 SLP993 T00001044
PABE 242353Z 28005KT 10SM SCT006 01/M04 A2952 RMK AO2 SLP999 T00061039 10011 21056 58018
PABE 242253Z 29006KT 10SM FEW006 00/M03 A2955 RMK AO2 SLP007 T00001033
PABE 242232Z 30006KT 10SM FEW006 01/M03 A2955 RMK AO2 T00061028
PABE 242153Z 31005KT 10SM CLR 00/M03 A2956 RMK AO2 SLP012 T00001033
PABE 242053Z 26007KT 10SM CLR M02/M03 A2958 RMK AO2 SLP017 T10171028 58003
PABE 241953Z 25006KT 10SM CLR M03/M04 A2958 RMK AO2 SLP020 T10331039
PABE 241853Z COR 24008KT 10SM BR CLR M06/M06 A2959 RMK AO2 SLP022 T10561056
PABE 241753Z 25006KT 10SM CLR M05/M06 A2959 RMK AO2 SLP021 I1000 I6000 T10501056 11017 21050 58010
PABE 241653Z 25006KT 10SM CLR M05/M06 A2960 RMK AO2 SLP026 I1000 T10501061
PABE 241553Z 25007KT 10SM CLR M04/M06 A2961 RMK AO2 SLP029 T10441056
PABE 241453Z 26008KT 10SM CLR M04/M05 A2962 RMK AO2 SLP032 T10391050 51009
PABE 241353Z 25008KT 10SM CLR M03/M04 A2961 RMK AO2 SLP030 T10331044
PABE 241253Z 26007KT 10SM CLR M03/M03 A2960 RMK AO2 SLP025 T10281033
PABE 241153Z 28007KT 10SM CLR M02/M03 A2959 RMK AO2 SLP022 T10171028 10006 21017 52019